首页
METAR-TAF:

METAR-TAF

机场 :

Caro, 密歇根州, 美国

纬度: 43-27-31N, 经度: 083-26-43W, 海拔: 214米

当前天气观测

该预报发布于24分钟前的09:35 UTC
风速6节,风向东南,有时为14节阵风
温度 10°C
湿度 87%
气压 999 hPa
能見度: 4.8公里
阴天层高于300英尺

METAR: KCFS 290935Z AUTO 14006G14KT 3SM RA OVC003 10/08 A2951 RMK AO2 T00960082

时间: 05:59 (09:59 UTC)


TAF: 丢失

超过4000个机场的气象观测和天气预报(METAR&TAF报告)。

可查询的气象台以黄色和红色小点在地图上表示。

将鼠标移到小点上方,可查看气象台名称。

然后点击查看天气观测和预报。

如需切换地图:点击带黑十字的绿色按钮放大地图;点击带横线的绿色按钮缩小地图;或者点击绿色箭头查看邻近地区的地图。


METAR-TAF: